Time;durP1;ratioP1;P1;durP2;ratioP2;P2;SDS_P1;SDS_P2;PMS_P1;PMS_P2;Temp;Humidity;BMP_temperature;BMP_pressure;BME280_temperature;BME280_humidity;BME280_pressure;Samples;Min_cycle;Max_cycle;Signal;HPM_P1;HPM_P2
2023/07/29 00:03:57;;;;;;;195.27;10.98;;;14.50;99.90;;;;;;8288588;28;20084;-82
2023/07/29 00:07:57;;;;;;;16.50;7.30;;;14.50;99.90;;;;;;8285570;28;20033;-83
2023/07/29 00:11:58;;;;;;;13.80;7.68;;;14.30;99.90;;;;;;8284063;28;20546;-82
2023/07/29 00:15:58;;;;;;;15.68;7.72;;;14.30;99.90;;;;;;8291606;28;20118;-82
2023/07/29 00:19:59;;;;;;;18.45;9.07;;;14.40;99.90;;;;;;8284022;28;20634;-82
2023/07/29 00:24:01;;;;;;;14.85;8.77;;;14.30;99.90;;;;;;8274303;28;20068;-81
2023/07/29 00:28:01;;;;;;;16.23;8.80;;;14.30;99.90;;;;;;8272522;28;20037;-81
2023/07/29 00:32:02;;;;;;;20.35;9.60;;;14.20;99.90;;;;;;8274840;28;20118;-81
2023/07/29 00:36:03;;;;;;;23.00;9.20;;;14.30;99.90;;;;;;8291114;28;20072;-81
2023/07/29 00:40:14;;;;;;;17.58;8.63;;;14.30;99.90;;;;;;8280957;28;20026;-81
2023/07/29 00:44:14;;;;;;;27.00;10.23;;;14.20;99.90;;;;;;8280829;28;20205;-81
2023/07/29 00:48:15;;;;;;;20.67;9.80;;;14.10;99.90;;;;;;8276476;28;20026;-82
2023/07/29 00:52:16;;;;;;;21.95;10.48;;;14.10;99.90;;;;;;8273507;28;20025;-81
2023/07/29 00:56:16;;;;;;;18.42;9.95;;;14.10;99.90;;;;;;8290434;28;20246;-81
2023/07/29 01:00:17;;;;;;;20.83;11.13;;;14.10;99.90;;;;;;8272513;28;20487;-81
2023/07/29 01:04:17;;;;;;;24.63;10.60;;;14.40;99.90;;;;;;8273229;28;20040;-82
2023/07/29 01:08:41;;;;;;;27.15;10.82;;;14.50;99.90;;;;;;8275262;28;20148;-81
2023/07/29 01:12:57;;;;;;;25.33;10.18;;;14.50;99.90;;;;;;8294215;28;20018;-81
2023/07/29 01:17:03;;;;;;;17.60;9.55;;;14.50;99.90;;;;;;8270430;28;20057;-82
2023/07/29 01:21:07;;;;;;;18.83;9.35;;;14.50;99.90;;;;;;8267002;28;20048;-81
2023/07/29 01:25:08;;;;;;;15.02;9.57;;;14.50;99.90;;;;;;8273446;28;20093;-82
2023/07/29 01:29:08;;;;;;;19.55;9.88;;;14.60;99.90;;;;;;8254683;28;20068;-83
2023/07/29 01:33:20;;;;;;;18.73;10.23;;;14.70;99.90;;;;;;8276341;28;20380;-82
2023/07/29 01:37:26;;;;;;;17.25;10.40;;;14.80;99.90;;;;;;8269860;28;20064;-82
2023/07/29 01:41:27;;;;;;;18.80;10.02;;;14.70;99.90;;;;;;8263141;28;20026;-82
2023/07/29 01:45:31;;;;;;;16.08;9.05;;;14.60;99.90;;;;;;8265090;28;20050;-82
2023/07/29 01:49:32;;;;;;;13.52;7.53;;;14.40;99.90;;;;;;8275867;28;20575;-82
2023/07/29 01:53:32;;;;;;;16.70;8.50;;;14.30;99.90;;;;;;8286754;28;20038;-81
2023/07/29 01:57:33;;;;;;;18.20;10.00;;;14.30;99.90;;;;;;8279753;28;20582;-83
2023/07/29 02:01:33;;;;;;;14.45;8.98;;;14.40;99.90;;;;;;8279481;28;20050;-82
2023/07/29 02:05:34;;;;;;;13.13;8.80;;;14.70;99.90;;;;;;8275279;28;20022;-82
2023/07/29 02:09:34;;;;;;;13.25;8.38;;;14.80;99.90;;;;;;8272101;28;20037;-81
2023/07/29 02:13:35;;;;;;;13.52;8.15;;;14.70;99.90;;;;;;8277551;28;20518;-82
2023/07/29 02:17:36;;;;;;;17.85;8.20;;;14.60;99.90;;;;;;8288195;28;20033;-82
2023/07/29 02:21:36;;;;;;;13.88;7.90;;;14.50;99.90;;;;;;8288775;28;20029;-82
2023/07/29 02:25:37;;;;;;;13.45;7.75;;;14.30;99.90;;;;;;8271558;28;20071;-82
2023/07/29 02:29:38;;;;;;;12.95;8.25;;;14.20;99.90;;;;;;8274250;28;20031;-82
2023/07/29 02:33:38;;;;;;;13.65;8.70;;;14.00;99.90;;;;;;8271273;28;20432;-83
2023/07/29 02:37:39;;;;;;;15.70;9.48;;;14.00;99.90;;;;;;8276024;28;20026;-81
2023/07/29 02:41:39;;;;;;;20.08;8.65;;;14.10;99.90;;;;;;8272871;28;20022;-81
2023/07/29 02:45:41;;;;;;;17.27;8.68;;;13.90;99.90;;;;;;8278772;28;20025;-81
2023/07/29 02:49:41;;;;;;;16.00;8.50;;;13.80;99.90;;;;;;8281377;28;20042;-81
2023/07/29 02:53:42;;;;;;;15.98;9.10;;;13.70;99.90;;;;;;8281913;28;20454;-83
2023/07/29 02:57:43;;;;;;;17.38;10.45;;;13.70;99.90;;;;;;8269608;28;20037;-83
2023/07/29 03:01:43;;;;;;;20.30;11.02;;;13.90;99.90;;;;;;8256470;28;20092;-81
2023/07/29 03:05:44;;;;;;;19.05;10.43;;;14.30;99.90;;;;;;8263730;28;20053;-80
2023/07/29 03:09:45;;;;;;;16.30;10.02;;;14.10;99.90;;;;;;8266594;28;20027;-82
2023/07/29 03:13:45;;;;;;;21.27;10.55;;;14.10;99.90;;;;;;8264710;28;20023;-82
2023/07/29 03:17:46;;;;;;;19.05;10.90;;;13.90;99.90;;;;;;8283183;28;20024;-82
2023/07/29 03:21:46;;;;;;;22.90;10.75;;;13.90;99.90;;;;;;8266522;28;20041;-81
2023/07/29 03:25:50;;;;;;;20.25;11.40;;;13.90;99.90;;;;;;8275378;28;20026;-83
2023/07/29 03:29:51;;;;;;;24.75;11.82;;;14.00;99.90;;;;;;8280475;28;20026;-82
2023/07/29 03:33:51;;;;;;;24.20;11.32;;;14.00;99.90;;;;;;8275734;28;20558;-81
2023/07/29 03:37:52;;;;;;;18.85;11.43;;;14.10;99.90;;;;;;8287587;28;20056;-81
2023/07/29 03:41:53;;;;;;;19.50;10.90;;;14.00;99.90;;;;;;8294987;28;20411;-82
2023/07/29 03:45:53;;;;;;;19.35;11.23;;;14.10;99.90;;;;;;8278198;28;20053;-82
2023/07/29 03:49:54;;;;;;;23.90;10.93;;;14.00;99.90;;;;;;8278049;28;20030;-82
2023/07/29 03:53:54;;;;;;;25.05;10.98;;;14.00;99.90;;;;;;8278201;28;20033;-81
2023/07/29 03:57:56;;;;;;;15.13;8.82;;;14.00;99.90;;;;;;8312381;23;20100;-77
2023/07/29 04:01:56;;;;;;;18.38;10.45;;;14.00;99.90;;;;;;8324155;28;20379;-77
2023/07/29 04:05:57;;;;;;;13.43;10.18;;;14.00;99.90;;;;;;8324833;28;20056;-77
2023/07/29 04:09:58;;;;;;;19.35;11.82;;;14.40;99.90;;;;;;8305122;28;20037;-78
2023/07/29 04:13:59;;;;;;;32.25;11.13;;;14.40;99.90;;;;;;8327303;28;20027;-78
2023/07/29 04:17:59;;;;;;;19.73;10.25;;;14.70;99.90;;;;;;8325312;28;20073;-77
2023/07/29 04:22:00;;;;;;;16.05;9.20;;;14.90;99.90;;;;;;8326163;28;20029;-77
2023/07/29 04:26:01;;;;;;;16.95;9.07;;;14.90;99.90;;;;;;8326672;28;21183;-77
2023/07/29 04:30:01;;;;;;;10.65;8.00;;;14.90;99.90;;;;;;8325718;28;20084;-77
2023/07/29 04:34:02;;;;;;;11.75;7.78;;;14.90;99.90;;;;;;8325632;28;20476;-77
2023/07/29 04:38:02;;;;;;;10.45;7.00;;;15.00;99.90;;;;;;8325268;28;20510;-77
2023/07/29 04:42:03;;;;;;;12.00;7.22;;;14.80;99.90;;;;;;8325884;28;20733;-77
2023/07/29 04:46:08;;;;;;;13.02;7.80;;;14.90;99.90;;;;;;8326174;28;20079;-77
2023/07/29 04:50:09;;;;;;;12.15;7.63;;;14.90;99.90;;;;;;8325182;28;20405;-77
2023/07/29 04:54:09;;;;;;;9.55;7.30;;;15.00;99.90;;;;;;8325034;28;20048;-77
2023/07/29 04:58:10;;;;;;;8.68;6.18;;;15.40;99.90;;;;;;8326039;28;20025;-77
2023/07/29 05:02:11;;;;;;;10.02;5.97;;;15.50;99.90;;;;;;8324043;28;20056;-77
2023/07/29 05:06:11;;;;;;;8.27;5.72;;;15.90;99.90;;;;;;8308960;28;20414;-77
2023/07/29 05:10:12;;;;;;;22.42;6.00;;;16.00;99.90;;;;;;8324567;28;20021;-78
2023/07/29 05:14:18;;;;;;;0.03;0.03;;;16.20;99.90;;;;;;8325829;28;20022;-83
2023/07/29 05:18:18;;;;;;;0.00;0.00;;;16.20;99.90;;;;;;8324255;28;20033;-86
2023/07/29 05:22:19;;;;;;;0.10;0.10;;;16.20;99.90;;;;;;8325874;28;20045;-84
2023/07/29 05:26:19;;;;;;;0.00;0.00;;;16.30;99.90;;;;;;8325170;28;20034;-83
2023/07/29 05:30:20;;;;;;;0.00;0.00;;;16.40;99.90;;;;;;8325822;28;20048;-84
2023/07/29 05:34:20;;;;;;;0.05;0.05;;;16.40;99.90;;;;;;8327192;28;20060;-84
2023/07/29 05:38:21;;;;;;;0.00;0.00;;;16.70;99.90;;;;;;8324350;28;20032;-83
2023/07/29 05:42:21;;;;;;;0.10;0.10;;;16.80;99.90;;;;;;8325434;28;20480;-82
2023/07/29 05:46:22;;;;;;;0.10;0.10;;;16.90;99.90;;;;;;8325875;28;20024;-84
2023/07/29 05:50:23;;;;;;;0.00;0.00;;;17.00;99.90;;;;;;8324748;28;20510;-86
2023/07/29 05:54:23;;;;;;;0.00;0.00;;;17.20;99.90;;;;;;8325876;28;20032;-84
2023/07/29 05:58:24;;;;;;;0.20;0.20;;;17.40;99.90;;;;;;8323855;28;20487;-85
2023/07/29 06:02:24;;;;;;;0.08;0.08;;;17.40;99.90;;;;;;8328271;28;20040;-87
2023/07/29 06:06:25;;;;;;;0.20;0.20;;;17.40;99.90;;;;;;8331403;28;20049;-85
2023/07/29 06:10:25;;;;;;;0.00;0.00;;;17.30;99.90;;;;;;8321841;28;20021;-83
2023/07/29 06:14:26;;;;;;;0.10;0.10;;;17.70;99.90;;;;;;8317032;28;20064;-84
2023/07/29 06:18:27;;;;;;;0.10;0.10;;;17.80;99.90;;;;;;8325992;28;20063;-86
2023/07/29 06:22:27;;;;;;;0.10;0.10;;;18.40;99.90;;;;;;8324426;28;20040;-87
2023/07/29 06:26:28;;;;;;;0.20;0.20;;;18.30;99.90;;;;;;8321335;28;20033;-83
2023/07/29 06:30:28;;;;;;;0.00;0.00;;;18.40;99.90;;;;;;8320796;28;20033;-83
2023/07/29 06:34:29;;;;;;;0.40;0.40;;;18.50;99.90;;;;;;8299114;28;20029;-84
2023/07/29 06:38:30;;;;;;;0.00;0.00;;;19.00;99.90;;;;;;8318146;28;20030;-85
2023/07/29 06:42:30;;;;;;;0.00;0.00;;;19.40;99.90;;;;;;8322348;28;20061;-83
2023/07/29 06:46:31;;;;;;;0.10;0.10;;;19.50;99.90;;;;;;8322520;28;20037;-84
2023/07/29 06:50:31;;;;;;;0.57;0.57;;;19.60;99.90;;;;;;8327072;28;20037;-83
2023/07/29 06:54:32;;;;;;;0.00;0.00;;;20.20;99.90;;;;;;8328417;28;20079;-82
2023/07/29 06:58:33;;;;;;;0.08;0.08;;;20.00;99.90;;;;;;8324543;28;20033;-81
2023/07/29 07:02:33;;;;;;;0.10;0.10;;;20.00;99.90;;;;;;8309432;28;20487;-81
2023/07/29 07:06:33;;;;;;;0.63;0.63;;;21.00;99.90;;;;;;8325994;28;20041;-82
2023/07/29 07:10:34;;;;;;;1.08;0.40;;;21.50;99.90;;;;;;8331149;28;20033;-81
2023/07/29 07:14:35;;;;;;;0.10;0.10;;;22.40;99.90;;;;;;8329463;28;20124;-80
2023/07/29 07:18:35;;;;;;;0.00;0.00;;;22.70;99.90;;;;;;8322508;28;20229;-80
2023/07/29 07:22:36;;;;;;;0.10;0.10;;;22.70;99.90;;;;;;8325129;28;20045;-80
2023/07/29 07:26:36;;;;;;;0.00;0.00;;;22.30;99.90;;;;;;8322962;28;20087;-79
2023/07/29 07:30:41;;;;;;;0.10;0.10;;;22.40;99.90;;;;;;8299554;28;20043;-79
2023/07/29 07:34:41;;;;;;;0.10;0.10;;;22.60;99.90;;;;;;8319599;28;20025;-79
2023/07/29 07:38:42;;;;;;;0.10;0.10;;;23.60;99.90;;;;;;8327610;28;20025;-78
2023/07/29 07:42:43;;;;;;;0.10;0.10;;;23.40;99.90;;;;;;8325034;28;20116;-78
2023/07/29 07:46:44;;;;;;;0.10;0.10;;;23.20;99.90;;;;;;8326355;28;20485;-78
2023/07/29 07:50:45;;;;;;;0.10;0.10;;;23.60;99.90;;;;;;8326312;28;20029;-77
2023/07/29 07:54:45;;;;;;;0.03;0.03;;;23.10;99.90;;;;;;8326078;28;20028;-78
2023/07/29 07:58:46;;;;;;;0.10;0.10;;;23.10;99.90;;;;;;8325062;28;20035;-77
2023/07/29 08:02:46;;;;;;;0.10;0.10;;;23.10;99.90;;;;;;8324270;28;20036;-77
2023/07/29 08:06:47;;;;;;;0.15;0.15;;;23.70;99.90;;;;;;8322084;28;20660;-78
2023/07/29 08:10:47;;;;;;;0.10;0.10;;;23.80;99.90;;;;;;8324689;28;20487;-77
2023/07/29 08:14:48;;;;;;;0.10;0.10;;;24.50;99.90;;;;;;8306424;28;20021;-77
2023/07/29 08:18:48;;;;;;;0.10;0.10;;;24.60;99.90;;;;;;8324919;28;20029;-78
2023/07/29 08:22:49;;;;;;;0.10;0.10;;;24.60;99.90;;;;;;8322341;28;20456;-77
2023/07/29 08:26:50;;;;;;;0.22;0.22;;;24.80;99.90;;;;;;8308698;28;20097;-77
2023/07/29 08:30:50;;;;;;;0.00;0.00;;;24.70;99.90;;;;;;8327289;28;20088;-78
2023/07/29 08:34:51;;;;;;;0.05;0.05;;;25.30;99.90;;;;;;8325545;28;20018;-78
2023/07/29 08:38:51;;;;;;;0.10;0.10;;;25.30;99.90;;;;;;8329885;28;20052;-78
2023/07/29 08:42:54;;;;;;;0.15;0.15;;;25.70;99.90;;;;;;8324984;28;20044;-78
2023/07/29 08:46:55;;;;;;;0.10;0.10;;;26.00;99.90;;;;;;8309209;28;20022;-78
2023/07/29 08:50:57;;;;;;;0.00;0.00;;;25.50;99.90;;;;;;8324349;28;20017;-78
2023/07/29 08:54:58;;;;;;;0.10;0.10;;;25.90;99.90;;;;;;8326054;28;20053;-79
2023/07/29 08:59:01;;;;;;;0.10;0.10;;;25.70;99.90;;;;;;8326167;28;20041;-79
2023/07/29 09:03:06;;;;;;;0.00;0.00;;;25.70;99.90;;;;;;8326053;28;20610;-79
2023/07/29 09:07:07;;;;;;;0.10;0.10;;;26.10;99.90;;;;;;8322055;28;20045;-78
2023/07/29 09:11:07;;;;;;;0.10;0.10;;;27.10;99.90;;;;;;8324813;28;20522;-79
2023/07/29 09:15:09;;;;;;;0.20;0.20;;;27.00;99.90;;;;;;8309096;28;20117;-78
2023/07/29 09:19:09;;;;;;;0.10;0.10;;;26.20;99.90;;;;;;8323016;28;20387;-79
2023/07/29 09:23:10;;;;;;;0.10;0.10;;;26.70;99.90;;;;;;8320739;28;20028;-79
2023/07/29 09:27:24;;;;;;;3.78;2.90;;;27.30;99.90;;;;;;8325803;28;20555;-80
2023/07/29 09:31:26;;;;;;;5.10;2.90;;;27.30;99.90;;;;;;8308900;28;20634;-79
2023/07/29 09:35:30;;;;;;;6.43;3.40;;;27.40;99.90;;;;;;8325162;28;20018;-79
2023/07/29 09:39:31;;;;;;;4.15;3.03;;;28.00;99.90;;;;;;8325545;28;20528;-81
2023/07/29 09:43:34;;;;;;;6.60;3.50;;;27.70;99.90;;;;;;8318259;28;20029;-80
2023/07/29 09:47:34;;;;;;;4.85;3.45;;;26.90;99.90;;;;;;8319851;28;20087;-79
2023/07/29 09:51:49;;;;;;;4.25;3.40;;;26.20;99.90;;;;;;8421076;27;20501;-79
2023/07/29 09:55:50;;;;;;;9.77;4.35;;;26.50;99.90;;;;;;8395233;28;20103;-79
2023/07/29 09:59:57;;;;;;;4.50;3.38;;;27.00;99.90;;;;;;8423157;28;20103;-80
2023/07/29 10:04:00;;;;;;;4.28;3.63;;;26.30;99.90;;;;;;8416093;28;20039;-79
2023/07/29 10:08:01;;;;;;;7.80;4.40;;;25.50;99.90;;;;;;8435982;28;20027;-79
2023/07/29 10:12:02;;;;;;;5.80;3.97;;;25.10;99.90;;;;;;8423588;28;20137;-80
2023/07/29 10:16:04;;;;;;;5.00;4.00;;;25.20;99.90;;;;;;8409083;28;20134;-80
2023/07/29 10:20:10;;;;;;;3.92;3.42;;;25.80;99.90;;;;;;8412403;28;20056;-80
2023/07/29 10:24:18;;;;;;;4.80;3.60;;;26.40;99.90;;;;;;8412579;28;20025;-81
2023/07/29 10:28:24;;;;;;;3.90;3.13;;;27.00;99.90;;;;;;8434524;28;20086;-80
2023/07/29 10:32:26;;;;;;;4.60;3.15;;;26.90;99.90;;;;;;8425384;28;20027;-79
2023/07/29 10:36:28;;;;;;;4.13;2.95;;;26.90;99.90;;;;;;8423765;28;20043;-80
2023/07/29 10:41:01;;;;;;;3.70;2.70;;;27.60;99.90;;;;;;8426869;28;20024;-79
2023/07/29 10:45:19;;;;;;;3.17;2.47;;;28.70;99.90;;;;;;8436750;28;20058;-81
2023/07/29 10:49:23;;;;;;;3.50;2.42;;;29.10;99.90;;;;;;8444549;28;20024;-81
2023/07/29 10:53:30;;;;;;;3.75;2.83;;;28.80;99.90;;;;;;8425001;28;20020;-81
2023/07/29 10:57:36;;;;;;;5.55;3.35;;;28.60;99.90;;;;;;8435430;28;20032;-81
2023/07/29 11:01:39;;;;;;;4.82;2.50;;;28.80;99.90;;;;;;8414436;28;20063;-81
2023/07/29 11:05:47;;;;;;;4.20;3.05;;;28.60;99.90;;;;;;8403891;28;20098;-80
2023/07/29 11:09:47;;;;;;;4.90;2.90;;;27.50;99.90;;;;;;8399747;28;20028;-80
2023/07/29 11:13:48;;;;;;;4.13;3.05;;;26.20;99.90;;;;;;8414568;28;20016;-80
2023/07/29 11:17:55;;;;;;;3.53;2.88;;;25.40;99.90;;;;;;8401952;28;20035;-83
2023/07/29 11:21:56;;;;;;;3.65;2.47;;;25.30;99.90;;;;;;8392460;28;20093;-84
2023/07/29 11:25:58;;;;;;;3.40;3.03;;;25.90;99.90;;;;;;8425973;28;20020;-81
2023/07/29 11:30:01;;;;;;;6.15;3.10;;;26.10;99.90;;;;;;8411500;28;20025;-81
2023/07/29 11:34:06;;;;;;;3.60;3.00;;;25.70;99.90;;;;;;8386808;28;20437;-80
2023/07/29 11:38:07;;;;;;;4.72;3.33;;;24.90;99.90;;;;;;8391539;28;20032;-80
2023/07/29 11:42:12;;;;;;;3.92;2.60;;;26.30;99.90;;;;;;8398496;28;20016;-79
2023/07/29 11:46:13;;;;;;;4.65;2.85;;;26.70;99.90;;;;;;8404606;28;20050;-80
2023/07/29 11:50:14;;;;;;;8.10;3.67;;;25.50;99.90;;;;;;8397357;28;20061;-77
2023/07/29 11:54:15;;;;;;;7.32;3.95;;;23.70;99.90;;;;;;8398740;28;20106;-82
2023/07/29 11:58:16;;;;;;;6.38;4.15;;;21.70;99.90;;;;;;8409260;28;20490;-81
2023/07/29 12:02:18;;;;;;;9.13;5.28;;;20.90;99.90;;;;;;8415909;28;20028;-79
2023/07/29 12:06:19;;;;;;;7.07;4.35;;;21.00;99.90;;;;;;8400997;28;20025;-78
2023/07/29 12:10:21;;;;;;;8.45;3.22;;;23.80;99.90;;;;;;8392463;28;20077;-79
2023/07/29 12:14:22;;;;;;;3.65;3.13;;;26.60;99.90;;;;;;8395568;28;20024;-78
2023/07/29 12:18:32;;;;;;;3.50;2.50;;;28.70;99.90;;;;;;8403883;28;20465;-78
2023/07/29 12:22:33;;;;;;;3.67;2.58;;;30.60;99.90;;;;;;8403815;28;20070;-78
2023/07/29 12:26:36;;;;;;;3.35;3.03;;;28.10;99.90;;;;;;8405570;28;20536;-78
2023/07/29 12:30:43;;;;;;;3.53;2.78;;;26.60;99.90;;;;;;8400916;28;20040;-78
2023/07/29 12:34:44;;;;;;;3.80;2.92;;;26.50;99.90;;;;;;8405823;28;20021;-78
2023/07/29 12:38:45;;;;;;;3.40;3.10;;;28.00;99.90;;;;;;8406984;28;20051;-77
2023/07/29 12:42:45;;;;;;;6.47;2.47;;;29.80;99.90;;;;;;8399321;28;20032;-78
2023/07/29 12:46:46;;;;;;;3.15;2.85;;;31.40;99.90;;;;;;8392205;28;20051;-78
2023/07/29 12:50:47;;;;;;;2.70;2.22;;;31.70;99.90;;;;;;8393302;28;20036;-78
2023/07/29 12:54:47;;;;;;;2.60;2.30;;;31.50;99.90;;;;;;8386871;28;20599;-77
2023/07/29 12:58:48;;;;;;;2.60;2.40;;;30.00;99.90;;;;;;8394581;28;20661;-77
2023/07/29 13:02:48;;;;;;;2.83;2.35;;;29.10;99.90;;;;;;8395262;28;20024;-78
2023/07/29 13:06:49;;;;;;;2.85;2.22;;;28.60;99.90;;;;;;8385683;28;20024;-79
2023/07/29 13:10:49;;;;;;;2.45;2.13;;;30.20;99.90;;;;;;8394591;28;20135;-78
2023/07/29 13:14:50;;;;;;;2.20;1.90;;;30.90;99.90;;;;;;8398869;28;20082;-79
2023/07/29 13:18:50;;;;;;;6.03;2.20;;;31.20;99.90;;;;;;8380546;28;20029;-79
2023/07/29 13:22:51;;;;;;;2.20;2.00;;;31.20;99.90;;;;;;8384397;28;20028;-78
2023/07/29 13:26:51;;;;;;;1.92;1.75;;;31.90;99.90;;;;;;8376933;28;20032;-79
2023/07/29 13:30:52;;;;;;;3.30;2.15;;;33.00;99.60;;;;;;8403163;28;20024;-79
2023/07/29 13:34:52;;;;;;;3.25;2.30;;;31.30;99.90;;;;;;8399688;28;20107;-79
2023/07/29 13:38:53;;;;;;;2.75;2.10;;;29.50;99.90;;;;;;8399732;28;20020;-79
2023/07/29 13:42:54;;;;;;;4.32;2.22;;;28.60;99.90;;;;;;8403188;28;20032;-79
2023/07/29 13:46:55;;;;;;;3.08;1.90;;;28.30;99.90;;;;;;8413362;28;20016;-79
2023/07/29 13:50:55;;;;;;;2.00;1.65;;;27.60;99.90;;;;;;8396232;28;20024;-78
2023/07/29 13:54:56;;;;;;;2.50;2.00;;;27.20;99.90;;;;;;8391259;28;20582;-78
2023/07/29 13:58:56;;;;;;;3.65;2.28;;;26.60;99.90;;;;;;8374823;28;20032;-77
2023/07/29 14:02:57;;;;;;;2.97;2.10;;;24.40;99.90;;;;;;8401615;28;20292;-77
2023/07/29 14:06:57;;;;;;;4.93;2.40;;;24.60;99.90;;;;;;8388200;28;20057;-78
2023/07/29 14:10:58;;;;;;;2.75;2.17;;;24.70;99.90;;;;;;8393276;28;20039;-77
2023/07/29 14:14:58;;;;;;;3.13;2.08;;;24.90;99.90;;;;;;8390749;28;20031;-78
2023/07/29 14:18:59;;;;;;;3.15;1.88;;;25.60;99.90;;;;;;8389543;28;20028;-78
2023/07/29 14:22:59;;;;;;;2.92;2.08;;;25.50;99.90;;;;;;8379216;28;20024;-77
2023/07/29 14:27:00;;;;;;;3.65;2.08;;;25.20;99.90;;;;;;8386743;28;20032;-78
2023/07/29 14:31:00;;;;;;;2.75;2.10;;;25.00;99.90;;;;;;8392291;28;20039;-78
2023/07/29 14:35:03;;;;;;;3.15;1.77;;;24.90;99.90;;;;;;8397884;28;20021;-78
2023/07/29 14:39:04;;;;;;;3.88;2.30;;;24.80;99.90;;;;;;8398771;28;20073;-79
2023/07/29 14:43:04;;;;;;;3.42;2.20;;;24.60;99.90;;;;;;8397712;28;20270;-78
2023/07/29 14:47:05;;;;;;;2.65;2.08;;;24.60;99.90;;;;;;8405517;28;20509;-79
2023/07/29 14:51:06;;;;;;;2.35;1.88;;;24.90;99.90;;;;;;8409363;28;20028;-79
2023/07/29 14:55:06;;;;;;;2.58;2.20;;;25.10;99.90;;;;;;8397380;28;20024;-80
2023/07/29 14:59:07;;;;;;;2.45;2.10;;;24.90;99.90;;;;;;8398450;28;20078;-78
2023/07/29 15:03:07;;;;;;;4.45;1.88;;;24.60;99.90;;;;;;8380702;28;20060;-78
2023/07/29 15:07:08;;;;;;;2.22;2.03;;;24.40;99.90;;;;;;8401250;28;20032;-78
2023/07/29 15:11:08;;;;;;;4.22;2.30;;;24.10;99.90;;;;;;8400834;28;20381;-78
2023/07/29 15:15:11;;;;;;;3.22;2.45;;;23.90;99.90;;;;;;8410227;28;20043;-78
2023/07/29 15:19:12;;;;;;;3.83;2.47;;;23.50;99.90;;;;;;8392308;28;20153;-79
2023/07/29 15:23:12;;;;;;;2.80;2.33;;;23.30;99.90;;;;;;8396134;28;20035;-79
2023/07/29 15:27:13;;;;;;;2.60;2.05;;;22.90;99.90;;;;;;8418371;28;20060;-78
2023/07/29 15:31:13;;;;;;;2.35;1.98;;;22.90;99.90;;;;;;8398679;28;20033;-78
2023/07/29 15:35:14;;;;;;;3.47;2.33;;;22.90;99.90;;;;;;8401453;28;20070;-79
2023/07/29 15:39:14;;;;;;;2.88;2.00;;;23.00;99.90;;;;;;8404076;28;20032;-80
2023/07/29 15:43:15;;;;;;;3.13;1.85;;;22.90;99.90;;;;;;8407610;28;20036;-79
2023/07/29 15:47:18;;;;;;;2.40;2.00;;;22.70;99.90;;;;;;8409976;28;20028;-77
2023/07/29 15:51:19;;;;;;;2.63;2.10;;;22.20;99.90;;;;;;8417318;28;20020;-79
2023/07/29 15:55:20;;;;;;;2.17;1.98;;;22.10;99.90;;;;;;8397978;28;20024;-78
2023/07/29 15:59:20;;;;;;;4.00;2.08;;;22.20;99.90;;;;;;8476738;22;20132;-80
2023/07/29 16:03:22;;;;;;;2.40;1.83;;;22.30;99.90;;;;;;8349860;28;20024;-80
2023/07/29 16:07:22;;;;;;;2.22;2.03;;;22.00;99.90;;;;;;8369606;28;20028;-81
2023/07/29 16:11:23;;;;;;;3.85;2.15;;;21.90;99.90;;;;;;8353915;28;20025;-81
2023/07/29 16:15:23;;;;;;;3.00;1.92;;;21.80;99.90;;;;;;8363235;28;20021;-80
2023/07/29 16:19:27;;;;;;;2.90;2.55;;;21.70;99.90;;;;;;8361269;28;20106;-80
2023/07/29 16:23:32;;;;;;;3.17;2.40;;;21.60;99.90;;;;;;8351237;28;20151;-79
2023/07/29 16:27:33;;;;;;;4.35;2.20;;;21.40;99.90;;;;;;8353107;28;20024;-79
2023/07/29 16:31:34;;;;;;;4.30;2.35;;;21.30;99.90;;;;;;8364643;28;20033;-80
2023/07/29 16:35:35;;;;;;;2.67;2.25;;;21.20;99.90;;;;;;8353082;28;20116;-82
2023/07/29 16:39:35;;;;;;;3.30;2.38;;;21.10;99.90;;;;;;8353450;28;20021;-80
2023/07/29 16:43:36;;;;;;;5.22;2.67;;;21.10;99.90;;;;;;8349776;28;20028;-80
2023/07/29 16:47:36;;;;;;;5.45;2.38;;;21.20;99.90;;;;;;8352649;28;20449;-79
2023/07/29 16:51:37;;;;;;;3.17;2.17;;;21.00;99.90;;;;;;8352131;28;20028;-80
2023/07/29 16:55:38;;;;;;;4.82;2.60;;;21.00;99.90;;;;;;8349555;28;20408;-81
2023/07/29 16:59:38;;;;;;;2.92;2.63;;;20.90;99.90;;;;;;8351884;28;20416;-80
2023/07/29 17:03:39;;;;;;;4.65;2.25;;;21.00;99.90;;;;;;8364066;28;20103;-79
2023/07/29 17:07:39;;;;;;;5.28;2.95;;;20.90;99.90;;;;;;8369507;28;20485;-80
2023/07/29 17:11:40;;;;;;;2.90;2.50;;;20.90;99.90;;;;;;8350830;28;20020;-80
2023/07/29 17:15:40;;;;;;;4.22;2.53;;;20.90;99.90;;;;;;8365632;28;20029;-81
2023/07/29 17:19:41;;;;;;;4.45;2.70;;;20.80;99.90;;;;;;8351758;28;20021;-80
2023/07/29 17:23:42;;;;;;;4.25;2.53;;;20.90;99.90;;;;;;8366065;28;20044;-80
2023/07/29 17:27:42;;;;;;;2.92;2.35;;;21.00;99.90;;;;;;8350610;28;20107;-80
2023/07/29 17:31:43;;;;;;;2.53;2.17;;;21.00;99.90;;;;;;8350976;28;20463;-80
2023/07/29 17:35:44;;;;;;;3.47;2.40;;;20.80;99.90;;;;;;8344893;28;20021;-79
2023/07/29 17:39:45;;;;;;;2.53;2.30;;;20.80;99.90;;;;;;8369040;28;20029;-80
2023/07/29 17:43:48;;;;;;;2.72;2.50;;;20.80;99.90;;;;;;8346289;28;20025;-79
2023/07/29 17:47:48;;;;;;;4.60;2.90;;;20.60;99.90;;;;;;8347896;28;20036;-81
2023/07/29 17:51:50;;;;;;;3.63;2.70;;;20.50;99.90;;;;;;8367488;28;20113;-80
2023/07/29 17:55:50;;;;;;;2.50;2.30;;;20.40;99.90;;;;;;8364633;28;20529;-80
2023/07/29 17:59:51;;;;;;;4.20;2.53;;;20.30;99.90;;;;;;8350758;28;20037;-80
2023/07/29 18:03:51;;;;;;;4.32;2.80;;;20.30;99.90;;;;;;8365422;28;20447;-80
2023/07/29 18:07:52;;;;;;;5.22;3.05;;;20.20;99.90;;;;;;8368042;28;20020;-80
2023/07/29 18:11:53;;;;;;;2.83;2.22;;;20.30;99.90;;;;;;8353950;28;20412;-80
2023/07/29 18:15:55;;;;;;;3.58;2.55;;;20.20;99.90;;;;;;8356702;28;20029;-80
2023/07/29 18:19:55;;;;;;;3.03;2.63;;;20.20;99.90;;;;;;8355568;28;20025;-80
2023/07/29 18:23:56;;;;;;;4.40;2.88;;;20.10;99.90;;;;;;8353052;28;20032;-80
2023/07/29 18:27:56;;;;;;;3.47;2.50;;;20.10;99.90;;;;;;8360996;28;20032;-80
2023/07/29 18:31:57;;;;;;;4.38;3.28;;;19.90;99.90;;;;;;8354224;28;20539;-80
2023/07/29 18:35:57;;;;;;;3.33;2.58;;;19.90;99.90;;;;;;8367902;28;20029;-80
2023/07/29 18:39:58;;;;;;;4.07;2.95;;;19.80;99.90;;;;;;8356385;28;20016;-80
2023/07/29 18:43:58;;;;;;;3.15;2.85;;;19.70;99.90;;;;;;8345506;28;20021;-80
2023/07/29 18:47:59;;;;;;;3.50;3.20;;;19.70;99.90;;;;;;8355551;28;20016;-80
2023/07/29 18:51:59;;;;;;;3.45;3.05;;;19.50;99.90;;;;;;8372557;28;20029;-80
2023/07/29 18:56:00;;;;;;;3.05;2.60;;;19.60;99.90;;;;;;8353911;28;20012;-80
2023/07/29 19:00:00;;;;;;;4.13;3.15;;;19.50;99.90;;;;;;8350424;28;20032;-79
2023/07/29 19:04:01;;;;;;;5.18;2.97;;;19.40;99.90;;;;;;8371657;28;20020;-81
2023/07/29 19:08:02;;;;;;;4.47;2.90;;;19.40;99.90;;;;;;8354674;28;20028;-80
2023/07/29 19:12:03;;;;;;;4.25;2.90;;;19.20;99.90;;;;;;8352976;28;20760;-80
2023/07/29 19:16:06;;;;;;;4.57;2.80;;;19.40;99.90;;;;;;8348947;28;20028;-80
2023/07/29 19:20:07;;;;;;;4.22;3.13;;;19.20;99.90;;;;;;8372792;28;20481;-81
2023/07/29 19:24:08;;;;;;;3.67;2.72;;;19.10;99.90;;;;;;8368185;28;20028;-80
2023/07/29 19:28:09;;;;;;;4.72;3.05;;;19.10;99.90;;;;;;8368314;28;20028;-80
2023/07/29 19:32:09;;;;;;;5.03;3.10;;;19.10;99.90;;;;;;8352464;28;20028;-80
2023/07/29 19:36:10;;;;;;;3.78;3.30;;;19.00;99.90;;;;;;8350750;28;20104;-80
2023/07/29 19:40:11;;;;;;;5.25;3.42;;;19.00;99.90;;;;;;8369437;28;20031;-80
2023/07/29 19:44:11;;;;;;;4.90;3.40;;;19.00;99.90;;;;;;8369617;28;20049;-80
2023/07/29 19:48:12;;;;;;;4.47;3.63;;;18.90;99.90;;;;;;8350536;28;20047;-80
2023/07/29 19:52:13;;;;;;;6.22;3.03;;;18.90;99.90;;;;;;8359010;28;20041;-80
2023/07/29 19:56:13;;;;;;;5.00;3.03;;;18.90;99.90;;;;;;8370160;28;20507;-80
2023/07/29 20:00:14;;;;;;;3.22;2.80;;;18.90;99.90;;;;;;8352495;28;20419;-82
2023/07/29 20:04:14;;;;;;;3.88;2.60;;;18.90;99.90;;;;;;8352240;28;20025;-80
2023/07/29 20:08:15;;;;;;;3.55;2.45;;;18.80;99.90;;;;;;8370266;28;20400;-80
2023/07/29 20:12:15;;;;;;;3.88;2.83;;;18.90;99.90;;;;;;8369682;28;20523;-79
2023/07/29 20:16:16;;;;;;;3.15;2.45;;;18.90;99.90;;;;;;8350218;28;20017;-80
2023/07/29 20:20:16;;;;;;;3.53;2.80;;;18.80;99.90;;;;;;8370478;28;20079;-80
2023/07/29 20:24:17;;;;;;;3.08;2.42;;;18.70;99.90;;;;;;8348978;28;20079;-80
2023/07/29 20:28:20;;;;;;;4.70;2.45;;;18.80;99.90;;;;;;8351827;28;20021;-80
2023/07/29 20:32:21;;;;;;;5.20;2.53;;;18.70;99.90;;;;;;8350088;28;20397;-80
2023/07/29 20:36:22;;;;;;;3.05;2.30;;;18.60;99.90;;;;;;8349322;28;20049;-79
2023/07/29 20:40:23;;;;;;;4.97;2.42;;;18.50;99.90;;;;;;8351742;28;20528;-80
2023/07/29 20:44:27;;;;;;;3.13;2.38;;;18.40;99.90;;;;;;8362118;28;20113;-81
2023/07/29 20:48:28;;;;;;;2.53;1.95;;;18.30;99.90;;;;;;8364325;28;20492;-81
2023/07/29 20:52:28;;;;;;;3.63;2.30;;;18.20;99.90;;;;;;8349562;28;20024;-80